createdAt,value
2023-03-17T00:00:44.918Z,99965.16
2023-03-17T00:01:53.229Z,99955.80
2023-03-17T00:02:57.514Z,99966.06
2023-03-17T00:04:00.755Z,99966.09
2023-03-17T00:05:15.107Z,99975.47
2023-03-17T00:06:27.414Z,99984.02
2023-03-17T00:07:30.703Z,99972.93
2023-03-17T00:08:37.491Z,99976.27
2023-03-17T00:09:40.268Z,99972.88
2023-03-17T00:10:43.058Z,99982.29
2023-03-17T00:11:46.507Z,99984.85
2023-03-17T00:12:52.896Z,99977.17
2023-03-17T00:13:57.229Z,99980.62
2023-03-17T00:14:59.527Z,99972.88
2023-03-17T00:16:04.630Z,99983.99
2023-03-17T00:17:10.061Z,99982.30
2023-03-17T00:18:15.929Z,99974.59
2023-03-17T00:19:27.605Z,99988.28
2023-03-17T00:20:32.550Z,99983.97
2023-03-17T00:21:35.147Z,99974.59
2023-03-17T00:22:37.937Z,99990.84
2023-03-17T00:23:42.749Z,99990.83
2023-03-17T00:24:45.120Z,99989.16
2023-03-17T00:25:49.367Z,99990.05
2023-03-17T00:26:51.769Z,99995.19
2023-03-17T00:27:55.895Z,99982.39
2023-03-17T00:28:58.347Z,99984.10
2023-03-17T00:30:00.681Z,99992.63
2023-03-17T00:31:06.468Z,99975.55
2023-03-17T00:32:12.452Z,99992.63
2023-03-17T00:33:16.439Z,99999.44
2023-03-17T00:34:19.377Z,100002.87
2023-03-17T00:35:26.146Z,99998.60
2023-03-17T00:36:31.693Z,99997.73
2023-03-17T00:37:33.886Z,99988.34
2023-03-17T00:38:36.950Z,100002.86
2023-03-17T00:39:39.926Z,99995.16
2023-03-17T00:42:51.713Z,99992.63
2023-03-17T00:43:54.931Z,99996.02
2023-03-17T00:44:57.867Z,99994.34
2023-03-17T00:46:00.926Z,99991.78
2023-03-17T00:47:03.765Z,100008.84
2023-03-17T00:48:16.003Z,99996.86
2023-03-17T00:49:21.722Z,100002.84
2023-03-17T00:50:27.148Z,99996.02
2023-03-17T00:51:29.941Z,100007.95
2023-03-17T00:52:32.800Z,99995.16
2023-03-17T00:53:35.911Z,99999.41
2023-03-17T00:54:38.717Z,100005.41
2023-03-17T00:55:44.088Z,99995.19
2023-03-17T00:56:48.233Z,99996.02
2023-03-17T00:57:51.275Z,100006.25
2023-03-17T00:58:53.870Z,100019.95
2023-03-17T00:59:56.308Z,100002.02
2023-03-17T01:01:00.272Z,99996.88
2023-03-17T01:02:02.771Z,100002.87
2023-03-17T01:03:05.256Z,100007.98
2023-03-17T01:04:10.282Z,99996.89
2023-03-17T01:05:14.012Z,100000.30
2023-03-17T01:06:17.534Z,100000.27
2023-03-17T01:07:20.506Z,100001.12
2023-03-17T01:08:25.060Z,99995.17
2023-03-17T01:09:28.310Z,99998.57
2023-03-17T01:10:32.842Z,100011.39
2023-03-17T01:11:35.984Z,99983.19
2023-03-17T01:12:38.392Z,100006.27
2023-03-17T01:13:41.061Z,100011.38
2023-03-17T01:14:43.201Z,100001.14
2023-03-17T01:15:50.015Z,100004.58
2023-03-17T01:16:55.104Z,99999.47
2023-03-17T01:17:59.747Z,100002.86
2023-03-17T01:19:02.462Z,99999.45
2023-03-17T01:20:07.125Z,99990.91
2023-03-17T01:21:09.886Z,100008.85
2023-03-17T01:22:13.573Z,100018.23
2023-03-17T01:23:17.048Z,100004.58
2023-03-17T01:24:19.714Z,100015.64
2023-03-17T01:25:22.531Z,100007.97
2023-03-17T01:26:26.084Z,100011.39
2023-03-17T01:27:29.226Z,100011.39
2023-03-17T01:28:32.060Z,100001.14
2023-03-17T01:29:34.878Z,100014.80
2023-03-17T01:30:39.246Z,100002.81
2023-03-17T01:31:41.979Z,100012.23
2023-03-17T01:32:46.737Z,100007.12
2023-03-17T01:33:50.309Z,100013.95
2023-03-17T01:34:52.902Z,100014.80
2023-03-17T01:35:55.765Z,100006.24
2023-03-17T01:37:01.476Z,100014.79
2023-03-17T01:38:05.588Z,100013.08
2023-03-17T01:39:08.125Z,100013.05
2023-03-17T01:40:15.421Z,100010.50
2023-03-17T01:41:20.115Z,100014.77
2023-03-17T01:42:22.626Z,100010.55
2023-03-17T01:43:28.642Z,100004.56
2023-03-17T01:44:31.464Z,100025.05
2023-03-17T01:46:11.752Z,100010.56
2023-03-17T01:47:16.405Z,100008.85
2023-03-17T01:48:19.265Z,100002.00
2023-03-17T01:49:29.939Z,100017.37
2023-03-17T01:50:33.957Z,100007.09
2023-03-17T01:51:45.975Z,100000.27
2023-03-17T01:52:49.211Z,100004.53
2023-03-17T01:53:54.649Z,100016.49
2023-03-17T01:55:03.174Z,100019.05
2023-03-17T01:56:07.876Z,100008.81
2023-03-17T01:57:16.754Z,100007.97
2023-03-17T01:58:22.477Z,100018.20
2023-03-17T01:59:28.907Z,100021.64
2023-03-17T02:00:33.525Z,100011.38
2023-03-17T02:01:42.161Z,100016.49
2023-03-17T02:02:50.939Z,100021.64
2023-03-17T02:03:55.448Z,100030.16
2023-03-17T02:04:58.419Z,100023.33
2023-03-17T02:06:02.326Z,100023.33
2023-03-17T02:07:05.119Z,100013.08
2023-03-17T02:08:13.880Z,100023.34
2023-03-17T02:09:16.780Z,100030.16
2023-03-17T02:10:22.702Z,100022.50
2023-03-17T02:11:25.824Z,100032.73
2023-03-17T02:12:30.953Z,100026.75
2023-03-17T02:13:34.414Z,100028.46
2023-03-17T02:14:36.995Z,100031.85
2023-03-17T02:15:42.054Z,100036.14
2023-03-17T02:16:45.588Z,100037.84
2023-03-17T02:17:50.715Z,100033.58
2023-03-17T02:18:53.145Z,100048.95
2023-03-17T02:19:56.225Z,100031.85
2023-03-17T02:21:30.732Z,100049.81
2023-03-17T02:22:33.235Z,100048.95
2023-03-17T02:23:36.093Z,100054.08
2023-03-17T02:24:45.422Z,100055.79
2023-03-17T02:25:48.709Z,100065.16
2023-03-17T02:26:54.915Z,100051.52
2023-03-17T02:28:01.630Z,100051.52
2023-03-17T02:29:05.464Z,100054.08
2023-03-17T02:30:11.604Z,100069.45
2023-03-17T02:31:15.973Z,100070.30
2023-03-17T02:32:19.929Z,100059.20
2023-03-17T02:33:22.969Z,100054.94
2023-03-17T02:34:27.879Z,100059.19
2023-03-17T02:35:30.917Z,100068.57
2023-03-17T02:36:34.614Z,100061.77
2023-03-17T02:37:37.981Z,100066.02
2023-03-17T02:38:40.664Z,100056.63
2023-03-17T02:39:43.462Z,100063.45
2023-03-17T02:40:45.990Z,100061.73
2023-03-17T02:41:48.326Z,100072.86
2023-03-17T02:42:50.787Z,100066.88
2023-03-17T02:43:53.279Z,100059.20
2023-03-17T02:44:56.159Z,100060.88
2023-03-17T02:45:58.705Z,100065.16
2023-03-17T02:47:02.611Z,100070.30
2023-03-17T02:48:05.541Z,100067.72
2023-03-17T02:49:08.114Z,100074.56
2023-03-17T02:50:14.113Z,100071.98
2023-03-17T02:51:16.531Z,100073.69
2023-03-17T02:52:19.092Z,100072.00
2023-03-17T02:53:21.215Z,100074.56
2023-03-17T02:54:23.524Z,100077.96
2023-03-17T02:55:26.573Z,100077.12
2023-03-17T02:56:29.474Z,100083.95
2023-03-17T02:57:31.723Z,100089.06
2023-03-17T02:58:34.062Z,100089.92
2023-03-17T02:59:37.331Z,100077.14
2023-03-17T03:00:40.108Z,100079.70
2023-03-17T03:01:43.336Z,100083.11
2023-03-17T03:02:47.545Z,100090.78
2023-03-17T03:03:50.149Z,100082.27
2023-03-17T03:04:53.107Z,100077.13
2023-03-17T03:05:55.855Z,100083.09
2023-03-17T03:06:58.267Z,100088.21
2023-03-17T03:08:00.493Z,100082.25
2023-03-17T03:09:03.155Z,100084.78
2023-03-17T03:10:06.694Z,100083.92
2023-03-17T03:11:09.498Z,100072.84
2023-03-17T03:12:13.365Z,100086.50
2023-03-17T03:13:17.341Z,100099.33
2023-03-17T03:14:19.700Z,100097.61
2023-03-17T03:15:22.973Z,100077.11
2023-03-17T03:16:25.704Z,100079.69
2023-03-17T03:17:28.019Z,100083.11
2023-03-17T03:18:30.290Z,100089.09
2023-03-17T03:19:32.433Z,100086.52
2023-03-17T03:20:35.675Z,100089.94
2023-03-17T03:21:37.977Z,100088.22
2023-03-17T03:22:40.493Z,100081.41
2023-03-17T03:23:42.827Z,100083.95
2023-03-17T03:24:45.216Z,100085.69
2023-03-17T03:25:47.918Z,100088.22
2023-03-17T03:26:51.116Z,100087.39
2023-03-17T03:27:53.698Z,100078.83
2023-03-17T03:28:57.865Z,100083.11
2023-03-17T03:30:00.780Z,100093.36
2023-03-17T03:31:03.332Z,100086.52
2023-03-17T03:32:06.719Z,100096.77
2023-03-17T03:33:11.130Z,100083.12
2023-03-17T03:34:14.254Z,100091.63
2023-03-17T03:35:16.627Z,100107.86
2023-03-17T03:36:19.886Z,100097.61
2023-03-17T03:37:23.444Z,100095.91
2023-03-17T03:38:26.564Z,100100.19
2023-03-17T03:39:28.967Z,100100.19
2023-03-17T03:40:32.039Z,100098.46
2023-03-17T03:41:35.418Z,100089.94
2023-03-17T03:42:37.828Z,100092.51
2023-03-17T03:43:40.578Z,100107.88
2023-03-17T03:44:44.078Z,100096.78
2023-03-17T03:45:46.485Z,100106.14
2023-03-17T03:46:49.005Z,100104.45
2023-03-17T03:47:51.387Z,100097.63
2023-03-17T03:48:54.648Z,100095.05
2023-03-17T03:49:56.930Z,100112.13
2023-03-17T03:51:01.384Z,100124.07
2023-03-17T03:52:05.135Z,100112.97
2023-03-17T03:53:07.570Z,100108.70
2023-03-17T03:54:09.834Z,100112.11
2023-03-17T03:55:12.200Z,100112.13
2023-03-17T03:56:15.436Z,100114.69
2023-03-17T03:57:18.042Z,100129.21
2023-03-17T03:58:20.710Z,100117.25
2023-03-17T03:59:23.346Z,100113.83
2023-03-17T04:00:25.936Z,100113.83
2023-03-17T04:01:28.694Z,100114.69
2023-03-17T04:02:31.376Z,100113.83
2023-03-17T04:03:34.195Z,100135.17
2023-03-17T04:04:37.171Z,100120.68
2023-03-17T04:05:39.736Z,100127.48
2023-03-17T04:06:42.232Z,100119.81
2023-03-17T04:07:48.054Z,100131.73
2023-03-17T04:08:50.474Z,100120.65
2023-03-17T04:09:53.223Z,100125.75
2023-03-17T04:10:56.041Z,100131.74
2023-03-17T04:11:58.288Z,100132.60
2023-03-17T04:13:01.376Z,100131.77
2023-03-17T04:14:05.773Z,100135.19
2023-03-17T04:15:10.712Z,100132.63
2023-03-17T04:16:13.388Z,100142.88
2023-03-17T04:17:16.310Z,100143.70
2023-03-17T04:18:18.953Z,100141.16
2023-03-17T04:19:21.466Z,100142.02
2023-03-17T04:20:24.153Z,100154.81
2023-03-17T04:21:27.296Z,100151.41
2023-03-17T04:22:30.188Z,100149.70
2023-03-17T04:23:33.488Z,100150.57
2023-03-17T04:24:35.756Z,100150.57
2023-03-17T04:25:39.541Z,100133.50
2023-03-17T04:26:41.958Z,100150.55
2023-03-17T04:27:44.203Z,100148.87
2023-03-17T04:28:47.029Z,100145.42
2023-03-17T04:29:49.254Z,100158.22
2023-03-17T04:30:51.693Z,100158.22
2023-03-17T04:31:54.496Z,100146.25
2023-03-17T04:32:56.965Z,100156.52
2023-03-17T04:33:59.262Z,100155.68
2023-03-17T04:35:01.762Z,100151.42
2023-03-17T04:36:06.360Z,100152.25
2023-03-17T04:37:10.364Z,100153.13
2023-03-17T04:38:13.082Z,100163.33
2023-03-17T04:39:16.334Z,100168.49
2023-03-17T04:40:19.657Z,100158.23
2023-03-17T04:41:22.034Z,100168.45
2023-03-17T04:42:24.763Z,100170.17
2023-03-17T04:43:27.298Z,100165.92
2023-03-17T04:44:29.717Z,100171.02
2023-03-17T04:45:32.052Z,100162.50
2023-03-17T04:46:35.521Z,100169.34
2023-03-17T04:47:39.253Z,100166.78
2023-03-17T04:48:42.815Z,100160.83
2023-03-17T04:49:45.563Z,100167.66
2023-03-17T04:50:47.988Z,100171.06
2023-03-17T04:51:50.964Z,100166.78
2023-03-17T04:52:55.445Z,100171.91
2023-03-17T04:53:57.824Z,100171.06
2023-03-17T04:55:00.440Z,100187.28
2023-03-17T04:56:02.773Z,100181.30
2023-03-17T04:57:05.407Z,100180.47
2023-03-17T04:58:08.353Z,100184.73
2023-03-17T04:59:11.555Z,100177.06
2023-03-17T05:00:15.611Z,100180.47
2023-03-17T05:01:19.175Z,100185.57
2023-03-17T05:02:21.693Z,100184.70
2023-03-17T05:03:27.636Z,100184.70
2023-03-17T05:04:31.897Z,100181.28
2023-03-17T05:05:35.735Z,100188.13
2023-03-17T05:06:38.233Z,100184.73
2023-03-17T05:07:41.203Z,100176.17
2023-03-17T05:08:46.777Z,100176.18
2023-03-17T05:09:49.170Z,100189.87
2023-03-17T05:10:52.158Z,100194.13
2023-03-17T05:11:55.483Z,100184.72
2023-03-17T05:12:58.355Z,100189.00
2023-03-17T05:14:00.862Z,100188.98
2023-03-17T05:15:05.953Z,100188.11
2023-03-17T05:16:09.231Z,100194.96
2023-03-17T05:17:11.827Z,100188.14
2023-03-17T05:18:15.759Z,100191.56
2023-03-17T05:19:19.432Z,100190.70
2023-03-17T05:20:22.594Z,100192.44
2023-03-17T05:21:24.893Z,100195.00
2023-03-17T05:22:27.802Z,100201.81
2023-03-17T05:23:30.220Z,100192.42
2023-03-17T05:24:33.247Z,100204.38
2023-03-17T05:25:36.267Z,100204.38
2023-03-17T05:26:39.547Z,100200.97
2023-03-17T05:27:43.854Z,100200.11
2023-03-17T05:28:47.873Z,100209.53
2023-03-17T05:29:50.366Z,100209.53
2023-03-17T05:30:53.652Z,100206.12
2023-03-17T05:31:56.221Z,100211.22
2023-03-17T05:32:58.884Z,100212.95
2023-03-17T05:34:02.839Z,100204.38
2023-03-17T05:35:06.172Z,100211.22
2023-03-17T05:36:10.342Z,100214.63
2023-03-17T05:37:13.541Z,100205.26
2023-03-17T05:38:17.836Z,100208.67
2023-03-17T05:39:20.526Z,100206.10
2023-03-17T05:40:26.617Z,100204.40
2023-03-17T05:41:29.205Z,100204.40
2023-03-17T05:42:31.368Z,100212.95
2023-03-17T05:43:33.973Z,100207.80
2023-03-17T05:44:36.233Z,100209.49
2023-03-17T05:45:39.058Z,100215.50
2023-03-17T05:46:42.209Z,100224.03
2023-03-17T05:47:45.471Z,100220.61
2023-03-17T05:48:49.613Z,100218.05
2023-03-17T05:49:52.330Z,100221.49
2023-03-17T05:50:55.168Z,100226.60
2023-03-17T05:51:58.298Z,100224.05
2023-03-17T05:53:05.279Z,100224.04
2023-03-17T05:54:08.159Z,100224.03
2023-03-17T05:55:11.128Z,100221.48
2023-03-17T05:56:13.794Z,100228.31
2023-03-17T05:57:16.470Z,100224.91
2023-03-17T05:58:18.580Z,100229.19
2023-03-17T05:59:21.692Z,100238.55
2023-03-17T06:00:24.794Z,100241.98
2023-03-17T06:01:27.868Z,100231.75
2023-03-17T06:02:30.727Z,100223.19
2023-03-17T06:03:33.300Z,100226.61
2023-03-17T06:04:35.635Z,100223.19
2023-03-17T06:05:37.727Z,100223.19
2023-03-17T06:06:40.700Z,100231.75
2023-03-17T06:07:52.928Z,100221.49
2023-03-17T06:08:47.416Z,100230.02
2023-03-17T06:09:50.690Z,100236.02
2023-03-17T06:10:53.048Z,100230.02
2023-03-17T06:11:56.424Z,100230.03
2023-03-17T06:13:00.410Z,100230.02
2023-03-17T06:14:03.914Z,100240.28
2023-03-17T06:15:10.245Z,100228.33
2023-03-17T06:16:13.688Z,100230.87
2023-03-17T06:17:16.132Z,100245.41
2023-03-17T06:18:19.796Z,100239.43
2023-03-17T06:19:22.077Z,100236.87
2023-03-17T06:20:24.505Z,100235.14
2023-03-17T06:21:26.972Z,100241.98
2023-03-17T06:22:29.862Z,100232.59
2023-03-17T06:23:32.257Z,100236.02
2023-03-17T06:24:34.892Z,100240.28
2023-03-17T06:25:37.177Z,100245.40
2023-03-17T06:26:39.910Z,100248.84
2023-03-17T06:27:43.026Z,100250.55
2023-03-17T06:28:46.122Z,100253.97
2023-03-17T06:29:48.876Z,100243.70
2023-03-17T06:30:51.557Z,100257.38
2023-03-17T06:31:55.117Z,100245.41
2023-03-17T06:32:57.502Z,100246.28
2023-03-17T06:33:59.829Z,100247.98
2023-03-17T06:35:05.637Z,100252.25
2023-03-17T06:36:08.778Z,100246.28
2023-03-17T06:37:11.673Z,100251.40
2023-03-17T06:38:14.330Z,100252.23
2023-03-17T06:39:17.675Z,100252.25
2023-03-17T06:40:20.501Z,100256.52
2023-03-17T06:41:22.847Z,100253.11
2023-03-17T06:42:25.208Z,100252.27
2023-03-17T06:43:27.639Z,100262.50
2023-03-17T06:44:30.138Z,100252.25
2023-03-17T06:45:32.942Z,100262.50
2023-03-17T06:46:36.197Z,100256.52
2023-03-17T06:47:39.196Z,100253.97
2023-03-17T06:48:41.660Z,100253.97
2023-03-17T06:49:43.905Z,100265.92
2023-03-17T06:50:50.970Z,100264.22
2023-03-17T06:51:54.123Z,100259.95
2023-03-17T06:52:56.458Z,100260.80
2023-03-17T06:53:58.824Z,100262.50
2023-03-17T06:55:01.476Z,100266.80
2023-03-17T06:56:04.574Z,100263.36
2023-03-17T06:57:07.508Z,100261.66
2023-03-17T06:58:10.313Z,100261.67
2023-03-17T06:59:12.838Z,100259.08
2023-03-17T07:00:17.496Z,100260.79
2023-03-17T07:01:23.028Z,100262.52
2023-03-17T07:02:27.914Z,100262.50
2023-03-17T07:03:30.597Z,100266.80
2023-03-17T07:04:33.091Z,100272.77
2023-03-17T07:05:36.461Z,100267.63
2023-03-17T07:06:39.084Z,100270.22
2023-03-17T07:07:41.958Z,100271.90
2023-03-17T07:08:45.850Z,100265.92
2023-03-17T07:09:48.308Z,100266.78
2023-03-17T07:10:50.947Z,100269.35
2023-03-17T07:11:53.382Z,100272.77
2023-03-17T07:12:55.971Z,100277.91
2023-03-17T07:13:58.625Z,100273.61
2023-03-17T07:15:01.017Z,100274.41
2023-03-17T07:16:03.943Z,100282.05
2023-03-17T07:17:06.250Z,100279.47
2023-03-17T07:18:08.786Z,100273.39
2023-03-17T07:19:12.267Z,100279.42
2023-03-17T07:20:16.096Z,100274.29
2023-03-17T07:21:18.636Z,100273.33
2023-03-17T07:22:21.179Z,100275.75
2023-03-17T07:23:24.026Z,100279.18
2023-03-17T07:24:28.613Z,100271.47
2023-03-17T07:25:32.464Z,100273.04
2023-03-17T07:26:35.398Z,100280.03
2023-03-17T07:27:39.264Z,100274.74
2023-03-17T07:28:41.544Z,100277.18
2023-03-17T07:29:45.186Z,100282.05
2023-03-17T07:30:49.800Z,100282.84
2023-03-17T07:31:52.852Z,100281.33
2023-03-17T07:32:56.836Z,100278.00
2023-03-17T07:33:59.395Z,100281.27
2023-03-17T07:35:01.626Z,100287.58
2023-03-17T07:36:05.962Z,100289.29
2023-03-17T07:37:10.228Z,100279.30
2023-03-17T07:38:12.689Z,100287.62
2023-03-17T07:39:15.756Z,100287.42
2023-03-17T07:40:19.547Z,100296.64
2023-03-17T07:41:23.129Z,100278.55
2023-03-17T07:42:27.209Z,100290.55
2023-03-17T07:43:29.887Z,100276.02
2023-03-17T07:44:32.742Z,100301.09
2023-03-17T07:45:35.586Z,100276.89
2023-03-17T07:46:38.372Z,100287.94
2023-03-17T07:47:43.211Z,100290.51
2023-03-17T07:48:47.114Z,100292.22
2023-03-17T07:49:49.612Z,100286.95
2023-03-17T07:50:52.065Z,100295.66
2023-03-17T07:51:58.134Z,100297.31
2023-03-17T07:53:01.625Z,100299.02
2023-03-17T07:54:06.210Z,100304.24
2023-03-17T07:55:12.745Z,100292.98
2023-03-17T07:56:15.955Z,100296.05
2023-03-17T07:57:19.177Z,100303.77
2023-03-17T07:58:21.993Z,100302.78
2023-03-17T07:59:24.855Z,100305.95
2023-03-17T08:00:28.487Z,100294.91
2023-03-17T08:01:31.743Z,100306.90
2023-03-17T08:02:34.947Z,100294.06
2023-03-17T08:03:41.140Z,100297.81
2023-03-17T08:04:44.686Z,100299.33
2023-03-17T08:05:54.056Z,100307.89
2023-03-17T08:06:57.026Z,100309.67
2023-03-17T08:07:59.908Z,100303.67
2023-03-17T08:09:02.247Z,100311.28
2023-03-17T08:10:10.361Z,100311.33
2023-03-17T08:11:12.988Z,100303.42
2023-03-17T08:12:16.670Z,100315.20
2023-03-17T08:13:20.403Z,100327.23
2023-03-17T08:14:23.133Z,100317.77
2023-03-17T08:15:26.449Z,100313.11
2023-03-17T08:16:30.140Z,100311.34
2023-03-17T08:17:34.107Z,100309.77
2023-03-17T08:18:37.137Z,100319.05
2023-03-17T08:19:40.812Z,100315.61
2023-03-17T08:20:44.920Z,100323.33
2023-03-17T08:21:47.658Z,100313.25
2023-03-17T08:22:50.172Z,100316.84
2023-03-17T08:23:55.373Z,100319.40
2023-03-17T08:24:59.285Z,100317.64
2023-03-17T08:26:03.770Z,100318.25
2023-03-17T08:27:07.230Z,100314.25
2023-03-17T08:28:09.757Z,100314.27
2023-03-17T08:29:12.219Z,100318.52
2023-03-17T08:30:16.862Z,100316.77
2023-03-17T08:31:22.070Z,100315.05
2023-03-17T08:32:24.447Z,100327.94
2023-03-17T08:33:27.216Z,100316.02
2023-03-17T08:34:29.605Z,100327.97
2023-03-17T08:35:32.161Z,100326.27
2023-03-17T08:36:34.793Z,100323.66
2023-03-17T08:37:37.399Z,100327.05
2023-03-17T08:38:42.592Z,100316.81
2023-03-17T08:39:44.969Z,100316.81
2023-03-17T08:40:49.432Z,100317.72
2023-03-17T08:41:52.333Z,100317.73
2023-03-17T08:42:55.068Z,100316.88
2023-03-17T08:43:59.371Z,100316.88
2023-03-17T08:45:02.897Z,100327.09
2023-03-17T08:46:16.938Z,100325.36
2023-03-17T08:47:19.897Z,100322.78
2023-03-17T08:48:22.045Z,100327.95
2023-03-17T08:49:24.318Z,100327.95
2023-03-17T08:50:28.361Z,100321.95
2023-03-17T08:51:34.274Z,100328.77
2023-03-17T08:52:36.592Z,100318.40
2023-03-17T08:53:39.240Z,100317.55
2023-03-17T08:54:42.884Z,100323.53
2023-03-17T08:55:45.042Z,100330.44
2023-03-17T08:56:47.565Z,100321.91
2023-03-17T08:57:52.002Z,100330.44
2023-03-17T08:58:55.832Z,100332.98
2023-03-17T08:59:58.454Z,100333.87
2023-03-17T09:01:02.612Z,100323.54
2023-03-17T09:02:05.565Z,100326.06
2023-03-17T09:03:09.456Z,100332.11
2023-03-17T09:04:11.793Z,100328.62
2023-03-17T09:05:17.105Z,100320.91
2023-03-17T09:06:20.687Z,100326.88
2023-03-17T09:07:22.835Z,100329.56
2023-03-17T09:08:27.040Z,100329.56
2023-03-17T09:09:30.566Z,100332.89
2023-03-17T09:10:34.514Z,100322.63
2023-03-17T09:11:37.568Z,100331.21
2023-03-17T09:12:39.987Z,100335.50
2023-03-17T09:13:42.363Z,100325.09
2023-03-17T09:14:45.608Z,100331.14
2023-03-17T09:15:52.014Z,100328.67
2023-03-17T09:16:55.995Z,100322.63
2023-03-17T09:17:58.671Z,100342.41
2023-03-17T09:19:03.185Z,100339.11
2023-03-17T09:20:06.813Z,100334.00
2023-03-17T09:21:11.191Z,100343.38
2023-03-17T09:22:17.279Z,100336.50
2023-03-17T09:23:21.382Z,100337.34
2023-03-17T09:24:23.897Z,100340.78
2023-03-17T09:25:26.838Z,100340.02
2023-03-17T09:26:29.729Z,100346.88
2023-03-17T09:27:32.230Z,100346.86
2023-03-17T09:28:34.893Z,100346.79
2023-03-17T09:29:36.942Z,100354.46
2023-03-17T09:30:46.101Z,100352.80
2023-03-17T09:31:48.449Z,100351.14
2023-03-17T09:32:50.958Z,100356.39
2023-03-17T09:33:54.485Z,100364.09
2023-03-17T09:34:57.171Z,100357.19
2023-03-17T09:35:59.392Z,100356.30
2023-03-17T09:37:01.889Z,100353.80
2023-03-17T09:38:05.409Z,100354.59
2023-03-17T09:39:08.300Z,100350.34
2023-03-17T09:40:15.221Z,100354.62
2023-03-17T09:41:24.151Z,100364.90
2023-03-17T09:42:40.055Z,100354.59
2023-03-17T09:43:46.141Z,100356.27
2023-03-17T09:45:12.976Z,100356.31
2023-03-17T09:46:29.229Z,100370.05
2023-03-17T09:47:50.420Z,100361.47
2023-03-17T09:49:05.199Z,100364.02
2023-03-17T09:50:15.350Z,100360.55
2023-03-17T09:51:19.531Z,100363.02
2023-03-17T09:52:30.685Z,100362.18
2023-03-17T09:53:48.925Z,100365.71
2023-03-17T09:54:51.575Z,100360.57
2023-03-17T09:55:58.242Z,100359.73
2023-03-17T09:57:17.478Z,100362.30
2023-03-17T09:58:23.531Z,100358.83
2023-03-17T09:59:32.653Z,100358.00
2023-03-17T10:00:35.218Z,100369.95
2023-03-17T10:01:41.592Z,100357.98
2023-03-17T10:02:44.854Z,100360.57
2023-03-17T10:03:49.586Z,100358.94
2023-03-17T10:04:52.487Z,100370.88
2023-03-17T10:05:58.837Z,100366.58
2023-03-17T10:07:04.545Z,100358.96
2023-03-17T10:08:30.642Z,100370.04
2023-03-17T10:09:41.025Z,100368.33
2023-03-17T10:11:08.351Z,100370.09
2023-03-17T10:13:29.770Z,100368.23
2023-03-17T10:14:35.728Z,100373.39
2023-03-17T10:15:44.971Z,100370.77
2023-03-17T10:16:54.254Z,100366.45
2023-03-17T10:17:57.584Z,100373.23
2023-03-17T10:19:15.753Z,100369.83
2023-03-17T10:20:24.584Z,100372.36
2023-03-17T10:21:31.095Z,100366.38
2023-03-17T10:22:49.439Z,100375.69
2023-03-17T10:23:54.958Z,100374.88
2023-03-17T10:25:04.691Z,100366.36
2023-03-17T10:26:32.149Z,100381.67
2023-03-17T10:27:37.005Z,100366.20
2023-03-17T10:28:39.607Z,100369.80
2023-03-17T10:29:42.795Z,100379.13
2023-03-17T10:30:45.791Z,100380.00
2023-03-17T10:31:48.711Z,100380.98
2023-03-17T10:32:53.700Z,100376.73
2023-03-17T10:34:00.665Z,100376.70
2023-03-17T10:35:04.630Z,100376.70
2023-03-17T10:36:12.624Z,100373.38
2023-03-17T10:37:17.980Z,100374.98
2023-03-17T10:38:21.973Z,100365.57
2023-03-17T10:39:25.771Z,100371.59
2023-03-17T10:40:30.837Z,100378.45
2023-03-17T10:41:37.144Z,100368.12
2023-03-17T10:42:48.577Z,100383.49
2023-03-17T10:43:51.562Z,100378.39
2023-03-17T10:44:57.576Z,100374.85
2023-03-17T10:46:04.107Z,100378.95
2023-03-17T10:47:16.024Z,100381.21
2023-03-17T10:48:19.649Z,100381.31
2023-03-17T10:49:24.548Z,100376.22
2023-03-17T10:50:39.627Z,100376.20
2023-03-17T10:51:46.880Z,100386.45
2023-03-17T10:52:57.362Z,100378.67
2023-03-17T10:54:03.605Z,100373.45
2023-03-17T10:55:07.164Z,100385.46
2023-03-17T10:56:14.103Z,100385.39
2023-03-17T10:57:17.891Z,100378.53
2023-03-17T10:58:28.555Z,100385.29
2023-03-17T10:59:33.700Z,100384.29
2023-03-17T11:00:38.079Z,100393.00
2023-03-17T11:01:53.517Z,100388.84
2023-03-17T11:02:59.026Z,100386.20
2023-03-17T11:04:03.373Z,100387.72
2023-03-17T11:05:10.768Z,100381.66
2023-03-17T11:06:17.012Z,100381.66
2023-03-17T11:07:22.730Z,100396.48
2023-03-17T11:08:28.781Z,100394.69
2023-03-17T11:09:37.166Z,100386.22
2023-03-17T11:10:41.225Z,100390.30
2023-03-17T11:11:47.477Z,100388.54
2023-03-17T11:12:58.219Z,100383.56
2023-03-17T11:14:11.039Z,100385.83
2023-03-17T11:15:18.198Z,100395.17
2023-03-17T11:16:22.956Z,100390.93
2023-03-17T11:18:40.303Z,100387.65
2023-03-17T11:19:56.028Z,100393.80
2023-03-17T11:21:10.821Z,100391.84
2023-03-17T11:22:24.710Z,100392.66
2023-03-17T11:23:40.124Z,100396.16
2023-03-17T11:25:06.201Z,100404.83
2023-03-17T11:26:33.169Z,100389.42
2023-03-17T11:27:42.741Z,100394.69
2023-03-17T11:28:55.313Z,100401.49
2023-03-17T11:30:32.288Z,100398.01
2023-03-17T11:31:39.904Z,100391.94
2023-03-17T11:32:59.483Z,100405.53
2023-03-17T11:34:09.785Z,100398.55
2023-03-17T11:35:37.206Z,100401.08
2023-03-17T11:36:57.823Z,100400.53
2023-03-17T11:38:15.337Z,100395.81
2023-03-17T11:39:24.535Z,100402.94
2023-03-17T11:40:48.953Z,100402.73
2023-03-17T11:42:11.068Z,100403.50
2023-03-17T11:43:19.900Z,100399.38
2023-03-17T11:44:46.478Z,100407.89
2023-03-17T11:46:09.930Z,100401.09
2023-03-17T11:47:32.060Z,100402.20
2023-03-17T11:49:02.586Z,100408.40
2023-03-17T11:50:09.026Z,100406.95
2023-03-17T11:51:50.553Z,100397.80
2023-03-17T11:53:06.828Z,100402.87
2023-03-17T11:54:25.182Z,100401.96
2023-03-17T11:55:37.149Z,100410.42
2023-03-17T11:56:55.670Z,100418.91
2023-03-17T11:58:29.089Z,100407.02
2023-03-17T11:59:44.007Z,100410.47
2023-03-17T12:00:52.970Z,100420.74
2023-03-17T12:02:18.499Z,100418.23
2023-03-17T12:03:30.640Z,100412.32
2023-03-17T12:04:37.686Z,100426.27
2023-03-17T12:05:43.312Z,100415.98
2023-03-17T12:06:52.270Z,100419.38
2023-03-17T12:08:01.792Z,100427.07
2023-03-17T12:09:25.947Z,100430.48
2023-03-17T12:10:40.184Z,100420.20
2023-03-17T12:11:45.919Z,100423.61
2023-03-17T12:12:52.634Z,100422.75
2023-03-17T12:14:07.221Z,100427.05
2023-03-17T12:15:29.921Z,100432.19
2023-03-17T12:16:39.259Z,100428.73
2023-03-17T12:17:54.102Z,100427.11
2023-03-17T12:19:09.064Z,100432.32
2023-03-17T12:21:37.640Z,100439.29
2023-03-17T12:22:49.682Z,100430.80
2023-03-17T12:24:17.686Z,100442.78
2023-03-17T12:25:35.736Z,100437.67
2023-03-17T12:26:44.551Z,100444.48
2023-03-17T12:28:08.592Z,100438.43
2023-03-17T12:29:21.414Z,100437.47
2023-03-17T12:30:33.723Z,100443.41
2023-03-17T12:31:40.144Z,100432.28
2023-03-17T12:32:55.693Z,100438.28